Crittenden, NY (14038)

4:52 PM EST on February 19, 2018 (GMT -0500)
Crittenden NY | | Change Station

Elev 850 ft 42.95 °N, 78.48 °W | Updated 7 minutes ago

Rain
Rain Mist
48.6 °F
Feels Like 46 °F
N
6.8
Wind Variable Wind from ESE

Today
High -- | Low -- °F
--% Chance of Precip.
Yesterday
High -- | Low -- °F
Precip. -- in
Pressure 30.04 in
Visibility 5.0 miles
Clouds Overcast 1500 ft
Windchill 46 °F
Dew Point 48 °F
Humidity 96%
Rainfall 0.12 in
Snow Depth Not available.
7:05 AM 5:50 PM
Waxing Crescent, 16% visible
SPECI KBUF 192105Z 21012KT 5SM RA BR OVC015 09/08 A3004 RMK AO2 P0002 T00940083
Pressure 30.04 in
Visibility 5.0 miles
Clouds Overcast 1500 ft
Windchill 46 °F
Dew Point 48 °F
Humidity 96%
Rainfall 0.12 in
Snow Depth Not available.
7:05 AM 5:50 PM
Waxing Crescent, 16% visible
SPECI KBUF 192105Z 21012KT 5SM RA BR OVC015 09/08 A3004 RMK AO2 P0002 T00940083

Get Severe Weather Alerts

Thanks for signing up!

Be on the lookout for a verification email in your inbox.

You'll start receiving the daily forecast at 6 AM.

×

10-Day Weather Forecast

Almanac

Astronomy

Feb. 19, 2018 Rise Set
Actual Time
Civil Twilight
Nautical Twilight
Astronomical Twilight
Moon
Length of Visible Light
Length of Day
Tomorrow will be .
, % of the Moon is Illuminated

Today's Extremes

State Highs State Lows

Community

WunderPhotos

Category 6

Welcome to Category 6. This is the collective home for Weather Underground's featured writeups by Dr. Jeff Masters (right), Bob Henson (left), Chris Burt, and other regular contributors.

Nearby

Air Quality

  Air Quality AQ Index Pollutant
Not available.

Snow Depth

Station Depth Elevation

Earthquake Activity

City Distance Mag. Time & Date
Minimum magnitude displayed is 2.5.

Coastal Water Temperatures

Place Temperature

Stations

Nearby Weather Stations

Station Location Temp. Windchill Dew Point Humidity Wind Precip. Elev Updated Type
                   

Watches & Warnings

There are currently no watches in effect.